createdAt,value
2022-11-19T00:01:38.523Z,98147.66
2022-11-19T00:04:09.447Z,98169.19
2022-11-19T00:06:40.957Z,98147.94
2022-11-19T00:09:14.923Z,98175.06
2022-11-19T00:12:00.915Z,98166.56
2022-11-19T00:14:32.251Z,98168.41
2022-11-19T00:16:59.874Z,98173.16
2022-11-19T00:19:28.026Z,98174.09
2022-11-19T00:21:55.756Z,98172.03
2022-11-19T00:24:24.730Z,98166.72
2022-11-19T00:26:52.438Z,98164.25
2022-11-19T00:29:22.767Z,98162.88
2022-11-19T00:31:50.734Z,98164.69
2022-11-19T00:34:18.463Z,98163.91
2022-11-19T00:36:46.142Z,98155.19
2022-11-19T00:39:13.926Z,98167.50
2022-11-19T00:41:42.960Z,98168.06
2022-11-19T00:44:10.621Z,98156.03
2022-11-19T00:46:38.632Z,98165.53
2022-11-19T00:49:06.345Z,98162.06
2022-11-19T00:51:34.171Z,98169.91
2022-11-19T00:54:01.853Z,98177.13
2022-11-19T00:56:29.499Z,98174.31
2022-11-19T00:58:58.988Z,98156.38
2022-11-19T01:01:26.937Z,98169.22
2022-11-19T01:03:54.838Z,98164.09
2022-11-19T01:06:24.411Z,98168.50
2022-11-19T01:08:53.003Z,98172.69
2022-11-19T01:11:23.598Z,98169.91
2022-11-19T01:13:51.334Z,98170.06
2022-11-19T01:16:21.811Z,98177.91
2022-11-19T01:18:50.611Z,98179.47
2022-11-19T01:21:19.341Z,98180.53
2022-11-19T01:23:47.401Z,98187.47
2022-11-19T01:26:15.606Z,98185.63
2022-11-19T01:28:44.538Z,98166.88
2022-11-19T01:31:14.764Z,98171.91
2022-11-19T01:33:44.375Z,98183.94
2022-11-19T01:36:14.672Z,98154.03
2022-11-19T01:38:42.999Z,98161.63
2022-11-19T01:41:11.579Z,98186.13
2022-11-19T01:43:48.206Z,98186.94
2022-11-19T01:46:20.195Z,98179.84
2022-11-19T01:48:52.776Z,98150.94
2022-11-19T01:51:23.252Z,98154.47
2022-11-19T01:53:51.445Z,98152.63
2022-11-19T01:56:19.617Z,98158.66
2022-11-19T01:58:48.958Z,98161.22
2022-11-19T02:01:17.337Z,98188.28
2022-11-19T02:03:44.950Z,98187.56
2022-11-19T02:06:13.883Z,98182.16
2022-11-19T02:08:42.893Z,98158.69
2022-11-19T02:11:28.954Z,98189.72
2022-11-19T02:14:04.511Z,98194.84
2022-11-19T02:16:40.052Z,98161.56
2022-11-19T02:19:15.763Z,98197.28
2022-11-19T02:21:51.198Z,98189.97
2022-11-19T02:24:34.298Z,98179.56
2022-11-19T02:27:24.006Z,98193.22
2022-11-19T02:30:04.163Z,98191.66
2022-11-19T02:32:34.418Z,98202.41
2022-11-19T02:35:07.816Z,98199.06
2022-11-19T02:37:41.043Z,98201.69
2022-11-19T02:40:12.444Z,98202.22
2022-11-19T02:42:44.587Z,98205.28
2022-11-19T02:45:16.334Z,98210.59
2022-11-19T02:47:48.042Z,98177.09
2022-11-19T02:50:17.879Z,98197.81
2022-11-19T02:52:46.609Z,98183.56
2022-11-19T02:55:15.188Z,98165.69
2022-11-19T02:57:43.761Z,98196.31
2022-11-19T03:00:31.900Z,98203.94
2022-11-19T03:03:27.052Z,98223.56
2022-11-19T03:05:58.477Z,98195.97
2022-11-19T03:08:26.109Z,98223.69
2022-11-19T03:11:01.146Z,98228.53
2022-11-19T03:13:51.418Z,98238.22
2022-11-19T03:16:43.558Z,98236.38
2022-11-19T03:19:36.313Z,98209.44
2022-11-19T03:22:08.232Z,98244.59
2022-11-19T03:24:37.539Z,98237.09
2022-11-19T03:27:10.122Z,98245.03
2022-11-19T03:29:41.398Z,98251.22
2022-11-19T03:32:14.306Z,98252.88
2022-11-19T03:34:42.801Z,98256.81
2022-11-19T03:37:10.876Z,98264.47
2022-11-19T03:39:39.563Z,98229.31
2022-11-19T03:42:08.213Z,98264.00
2022-11-19T03:44:39.984Z,98251.19
2022-11-19T03:47:11.217Z,98251.19
2022-11-19T03:49:41.557Z,98246.88
2022-11-19T03:52:11.677Z,98246.03
2022-11-19T03:54:39.885Z,98254.16
2022-11-19T03:57:08.502Z,98256.81
2022-11-19T03:59:36.528Z,98259.72
2022-11-19T04:02:06.792Z,98262.88
2022-11-19T04:04:38.574Z,98251.41
2022-11-19T04:07:07.873Z,98260.13
2022-11-19T04:09:35.657Z,98255.06
2022-11-19T04:12:03.425Z,98272.50
2022-11-19T04:14:31.126Z,98266.94
2022-11-19T04:16:58.833Z,98264.78
2022-11-19T04:19:26.600Z,98272.25
2022-11-19T04:21:55.594Z,98269.56
2022-11-19T04:24:23.285Z,98261.84
2022-11-19T04:26:50.994Z,98269.38
2022-11-19T04:29:19.023Z,98260.16
2022-11-19T04:31:46.841Z,98274.41
2022-11-19T04:34:14.539Z,98270.63
2022-11-19T04:36:42.390Z,98272.13
2022-11-19T04:39:12.458Z,98278.28
2022-11-19T04:41:41.056Z,98283.50
2022-11-19T04:44:08.709Z,98271.75
2022-11-19T04:46:36.379Z,98286.72
2022-11-19T04:49:04.126Z,98294.16
2022-11-19T04:51:31.784Z,98274.69
2022-11-19T04:53:59.353Z,98253.22
2022-11-19T04:56:28.359Z,98260.94
2022-11-19T04:58:55.917Z,98281.03
2022-11-19T05:01:23.577Z,98255.56
2022-11-19T05:03:51.198Z,98257.06
2022-11-19T05:06:18.811Z,98260.44
2022-11-19T05:08:46.470Z,98299.16
2022-11-19T05:11:14.409Z,98269.06
2022-11-19T05:13:43.400Z,98300.97
2022-11-19T05:16:11.014Z,98265.00
2022-11-19T05:18:38.656Z,98300.94
2022-11-19T05:21:06.253Z,98303.47
2022-11-19T05:23:33.877Z,98296.31
2022-11-19T05:26:01.474Z,98308.41
2022-11-19T05:28:38.575Z,98306.66
2022-11-19T05:31:08.936Z,98303.38
2022-11-19T05:33:36.628Z,98306.66
2022-11-19T05:36:04.898Z,98311.00
2022-11-19T05:38:32.553Z,98309.47
2022-11-19T05:41:00.280Z,98316.94
2022-11-19T05:43:27.960Z,98315.31
2022-11-19T05:45:55.717Z,98306.28
2022-11-19T05:48:24.660Z,98317.78
2022-11-19T05:50:52.529Z,98304.06
2022-11-19T05:53:20.161Z,98321.28
2022-11-19T05:55:47.930Z,98325.66
2022-11-19T05:58:15.570Z,98321.38
2022-11-19T06:00:43.213Z,98327.53
2022-11-19T06:03:11.085Z,98319.50
2022-11-19T06:05:40.843Z,98319.81
2022-11-19T06:08:08.692Z,98319.47
2022-11-19T06:10:36.315Z,98328.41
2022-11-19T06:13:04.233Z,98315.66
2022-11-19T06:15:31.885Z,98330.94
2022-11-19T06:17:59.539Z,98324.44
2022-11-19T06:20:27.182Z,98305.59
2022-11-19T06:22:56.155Z,98330.69
2022-11-19T06:25:24.372Z,98340.00
2022-11-19T06:27:52.050Z,98329.66
2022-11-19T06:30:19.739Z,98332.94
2022-11-19T06:32:47.430Z,98338.53
2022-11-19T06:35:15.259Z,98342.94
2022-11-19T06:37:42.880Z,98322.63
2022-11-19T06:40:13.623Z,98354.09
2022-11-19T06:42:41.272Z,98351.56
2022-11-19T06:45:11.231Z,98332.84
2022-11-19T06:47:40.256Z,98330.78
2022-11-19T06:50:09.455Z,98337.44
2022-11-19T06:52:37.089Z,98324.16
2022-11-19T06:55:05.453Z,98353.94
2022-11-19T06:57:34.518Z,98340.44
2022-11-19T07:00:02.213Z,98365.59
2022-11-19T07:02:29.883Z,98342.34
2022-11-19T07:04:57.562Z,98363.09
2022-11-19T07:07:25.254Z,98358.84
2022-11-19T07:09:52.988Z,98358.06
2022-11-19T07:12:20.919Z,98384.56
2022-11-19T07:14:49.964Z,98350.47
2022-11-19T07:17:17.638Z,98353.19
2022-11-19T07:19:45.308Z,98385.34
2022-11-19T07:22:12.990Z,98390.69
2022-11-19T07:24:40.704Z,98385.34
2022-11-19T07:27:08.337Z,98390.53
2022-11-19T07:29:36.301Z,98395.88
2022-11-19T07:32:05.554Z,98366.63
2022-11-19T07:34:33.181Z,98361.84
2022-11-19T07:37:00.781Z,98402.19
2022-11-19T07:39:28.923Z,98408.22
2022-11-19T07:42:13.887Z,98416.13
2022-11-19T07:44:41.581Z,98414.00
2022-11-19T07:47:10.590Z,98403.13
2022-11-19T07:49:38.283Z,98401.53
2022-11-19T07:52:05.929Z,98406.59
2022-11-19T07:54:33.622Z,98428.06
2022-11-19T07:57:01.280Z,98440.38
2022-11-19T07:59:28.833Z,98447.94
2022-11-19T08:01:56.583Z,98439.38
2022-11-19T08:04:25.480Z,98416.69
2022-11-19T08:06:53.185Z,98448.19
2022-11-19T08:09:21.342Z,98421.81
2022-11-19T08:11:49.213Z,98445.72
2022-11-19T08:14:16.960Z,98427.88
2022-11-19T08:17:02.381Z,98453.47
2022-11-19T08:19:31.498Z,98448.28
2022-11-19T08:21:59.122Z,98458.88
2022-11-19T08:24:26.987Z,98469.09
2022-11-19T08:26:54.620Z,98463.16
2022-11-19T08:29:23.788Z,98464.06
2022-11-19T08:31:51.953Z,98471.00
2022-11-19T08:34:19.944Z,98464.91
2022-11-19T08:36:49.126Z,98463.00
2022-11-19T08:39:16.872Z,98465.72
2022-11-19T08:42:01.897Z,98471.56
2022-11-19T08:44:29.575Z,98477.94
2022-11-19T08:46:57.250Z,98477.13
2022-11-19T08:49:24.808Z,98474.69
2022-11-19T08:51:54.206Z,98437.84
2022-11-19T08:54:22.366Z,98475.47
2022-11-19T08:56:50.163Z,98458.28
2022-11-19T08:59:18.023Z,98460.59
2022-11-19T09:01:45.742Z,98468.22
2022-11-19T09:04:13.506Z,98469.03
2022-11-19T09:06:41.277Z,98489.06
2022-11-19T09:09:10.488Z,98470.38
2022-11-19T09:11:42.407Z,98500.41
2022-11-19T09:14:11.075Z,98500.53
2022-11-19T09:16:38.717Z,98496.03
2022-11-19T09:19:06.379Z,98499.34
2022-11-19T09:21:34.177Z,98499.59
2022-11-19T09:24:01.899Z,98519.28
2022-11-19T09:26:31.056Z,98520.31
2022-11-19T09:28:59.073Z,98524.63
2022-11-19T09:31:26.855Z,98527.38
2022-11-19T09:33:55.420Z,98502.56
2022-11-19T09:36:23.112Z,98491.38
2022-11-19T09:38:50.707Z,98506.16
2022-11-19T09:41:33.256Z,98504.34
2022-11-19T09:44:12.065Z,98525.72
2022-11-19T09:46:45.709Z,98543.66
2022-11-19T09:49:18.358Z,98543.59
2022-11-19T09:51:52.207Z,98533.31
2022-11-19T09:54:21.409Z,98540.34
2022-11-19T09:56:53.197Z,98538.47
2022-11-19T09:59:25.982Z,98549.81
2022-11-19T10:01:53.942Z,98557.81
2022-11-19T10:04:23.767Z,98552.78
2022-11-19T10:06:59.730Z,98551.22
2022-11-19T10:09:42.756Z,98550.28
2022-11-19T10:12:25.663Z,98551.44
2022-11-19T10:15:06.064Z,98541.72
2022-11-19T10:17:42.384Z,98547.53
2022-11-19T10:20:17.842Z,98548.16
2022-11-19T10:22:57.205Z,98520.78
2022-11-19T10:25:28.453Z,98542.88
2022-11-19T10:28:04.992Z,98543.59
2022-11-19T10:30:32.753Z,98515.38
2022-11-19T10:33:03.389Z,98541.25
2022-11-19T10:35:33.676Z,98521.56
2022-11-19T10:38:03.498Z,98543.66
2022-11-19T10:40:34.377Z,98541.38
2022-11-19T10:43:14.048Z,98537.69
2022-11-19T10:45:41.758Z,98517.13
2022-11-19T10:48:14.024Z,98547.94
2022-11-19T10:50:42.456Z,98534.97
2022-11-19T10:53:15.957Z,98537.38
2022-11-19T10:55:50.045Z,98544.19
2022-11-19T10:58:25.744Z,98541.66
2022-11-19T11:00:54.978Z,98544.34
2022-11-19T11:03:25.722Z,98551.34
2022-11-19T11:05:58.485Z,98547.72
2022-11-19T11:08:26.955Z,98544.06
2022-11-19T11:10:54.681Z,98539.06
2022-11-19T11:13:58.357Z,98537.97
2022-11-19T11:16:31.596Z,98543.88
2022-11-19T11:19:01.635Z,98546.34
2022-11-19T11:21:35.893Z,98532.09
2022-11-19T11:24:05.331Z,98542.16
2022-11-19T11:26:35.214Z,98514.63
2022-11-19T11:29:08.012Z,98546.50
2022-11-19T11:31:40.613Z,98546.28
2022-11-19T11:34:15.132Z,98545.38
2022-11-19T11:36:43.979Z,98531.88
2022-11-19T11:39:25.105Z,98535.31
2022-11-19T11:42:05.369Z,98536.00
2022-11-19T11:44:38.241Z,98542.91
2022-11-19T11:47:12.568Z,98500.06
2022-11-19T11:49:42.265Z,98523.28
2022-11-19T11:52:21.251Z,98514.88
2022-11-19T11:55:00.255Z,98532.88
2022-11-19T11:57:29.647Z,98536.22
2022-11-19T11:59:59.028Z,98521.66
2022-11-19T12:02:30.399Z,98513.91
2022-11-19T12:05:00.866Z,98520.84
2022-11-19T12:07:44.754Z,98502.00
2022-11-19T12:10:25.009Z,98544.22
2022-11-19T12:13:03.272Z,98527.69
2022-11-19T12:15:42.476Z,98528.41
2022-11-19T12:18:17.178Z,98482.16
2022-11-19T12:20:50.547Z,98531.06
2022-11-19T12:23:29.484Z,98532.09
2022-11-19T12:26:04.162Z,98525.44
2022-11-19T12:28:45.932Z,98527.13
2022-11-19T12:31:30.041Z,98534.56
2022-11-19T12:34:23.137Z,98537.53
2022-11-19T12:36:57.185Z,98529.56
2022-11-19T12:39:33.958Z,98530.34
2022-11-19T12:42:23.319Z,98531.25
2022-11-19T12:44:56.925Z,98530.31
2022-11-19T12:47:37.641Z,98509.81
2022-11-19T12:50:17.690Z,98516.16
2022-11-19T12:53:03.241Z,98510.59
2022-11-19T12:55:37.629Z,98507.28
2022-11-19T12:58:11.529Z,98501.47
2022-11-19T13:00:43.722Z,98537.22
2022-11-19T13:03:16.565Z,98514.34
2022-11-19T13:05:50.755Z,98545.13
2022-11-19T13:08:22.678Z,98520.38
2022-11-19T13:10:52.920Z,98553.81
2022-11-19T13:13:24.089Z,98544.19
2022-11-19T13:15:57.456Z,98539.84
2022-11-19T13:18:29.464Z,98537.19
2022-11-19T13:20:59.212Z,98551.03
2022-11-19T13:23:31.376Z,98543.25
2022-11-19T13:26:02.283Z,98545.72
2022-11-19T13:28:35.173Z,98551.81
2022-11-19T13:31:07.874Z,98558.09
2022-11-19T13:33:41.216Z,98557.22
2022-11-19T13:36:15.752Z,98554.56
2022-11-19T13:38:48.119Z,98559.03
2022-11-19T13:41:18.453Z,98560.00
2022-11-19T13:44:03.783Z,98560.88
2022-11-19T13:46:35.788Z,98553.91
2022-11-19T13:49:08.645Z,98564.25
2022-11-19T13:51:39.529Z,98563.06
2022-11-19T13:54:08.938Z,98569.34
2022-11-19T13:56:44.339Z,98559.78
2022-11-19T13:59:31.804Z,98572.94
2022-11-19T14:02:38.525Z,98568.66
2022-11-19T14:05:42.254Z,98572.78
2022-11-19T14:08:21.169Z,98556.50
2022-11-19T14:11:02.363Z,98558.78
2022-11-19T14:13:46.590Z,98561.53
2022-11-19T14:16:38.986Z,98544.50
2022-11-19T14:19:26.021Z,98564.38
2022-11-19T14:22:13.316Z,98555.81
2022-11-19T14:25:11.525Z,98566.06
2022-11-19T14:27:39.493Z,98559.16
2022-11-19T14:30:09.691Z,98554.16
2022-11-19T14:32:46.877Z,98557.50
2022-11-19T14:35:38.857Z,98558.50
2022-11-19T14:38:33.761Z,98554.09
2022-11-19T14:41:08.167Z,98563.59
2022-11-19T14:44:07.659Z,98567.75
2022-11-19T14:46:35.697Z,98569.06
2022-11-19T14:49:08.140Z,98582.78
2022-11-19T14:51:37.113Z,98572.31
2022-11-19T14:54:31.032Z,98580.22
2022-11-19T14:57:05.579Z,98585.16
2022-11-19T14:59:36.861Z,98579.03
2022-11-19T15:02:12.469Z,98592.09
2022-11-19T15:04:41.706Z,98577.56
2022-11-19T15:07:10.642Z,98580.88
2022-11-19T15:10:04.618Z,98582.72
2022-11-19T15:12:45.863Z,98574.94
2022-11-19T15:15:35.158Z,98584.50
2022-11-19T15:18:14.363Z,98590.53
2022-11-19T15:20:58.953Z,98606.03
2022-11-19T15:23:32.605Z,98607.75
2022-11-19T15:26:08.233Z,98607.69
2022-11-19T15:28:44.792Z,98614.78
2022-11-19T15:31:23.302Z,98608.72
2022-11-19T15:34:49.219Z,98610.34
2022-11-19T15:37:29.165Z,98605.09
2022-11-19T15:39:58.292Z,98604.31
2022-11-19T15:42:31.438Z,98601.88
2022-11-19T15:45:03.163Z,98611.28
2022-11-19T15:47:38.072Z,98605.28
2022-11-19T15:50:07.092Z,98611.41
2022-11-19T15:52:34.733Z,98597.81
2022-11-19T15:55:12.677Z,98613.41
2022-11-19T15:57:45.526Z,98608.41
2022-11-19T16:00:18.561Z,98605.97
2022-11-19T16:02:47.941Z,98610.31
2022-11-19T16:05:21.127Z,98606.06
2022-11-19T16:07:49.732Z,98600.94
2022-11-19T16:10:22.047Z,98599.47
2022-11-19T16:13:16.438Z,98596.03
2022-11-19T16:16:09.188Z,98607.19
2022-11-19T16:18:46.200Z,98611.63
2022-11-19T16:21:15.361Z,98619.59
2022-11-19T16:24:03.022Z,98619.41
2022-11-19T16:26:30.863Z,98636.72
2022-11-19T16:29:02.203Z,98632.44
2022-11-19T16:31:31.406Z,98628.28
2022-11-19T16:33:59.540Z,98632.59
2022-11-19T16:36:29.835Z,98635.09
2022-11-19T16:38:58.221Z,98628.22
2022-11-19T16:41:58.426Z,98629.88
2022-11-19T16:44:29.956Z,98625.50
2022-11-19T16:46:57.726Z,98616.69
2022-11-19T16:49:32.193Z,98621.25
2022-11-19T16:52:00.505Z,98631.44
2022-11-19T16:54:46.200Z,98624.69
2022-11-19T16:57:15.148Z,98617.72
2022-11-19T16:59:47.338Z,98619.44
2022-11-19T17:02:16.897Z,98625.50
2022-11-19T17:04:48.945Z,98626.34
2022-11-19T17:07:22.465Z,98622.97
2022-11-19T17:09:50.383Z,98624.63
2022-11-19T17:12:27.415Z,98626.19
2022-11-19T17:15:00.759Z,98630.44
2022-11-19T17:17:40.353Z,98643.44
2022-11-19T17:20:51.075Z,98635.59
2022-11-19T17:23:20.233Z,98631.53
2022-11-19T17:25:49.715Z,98636.59
2022-11-19T17:28:20.055Z,98639.91
2022-11-19T17:30:50.565Z,98638.19
2022-11-19T17:33:19.439Z,98643.38
2022-11-19T17:35:48.780Z,98640.72
2022-11-19T17:38:18.554Z,98645.09
2022-11-19T17:40:47.929Z,98639.16
2022-11-19T17:43:34.610Z,98649.56
2022-11-19T17:46:03.780Z,98648.69
2022-11-19T17:48:31.355Z,98656.34
2022-11-19T17:50:58.998Z,98659.72
2022-11-19T17:53:26.861Z,98657.38
2022-11-19T17:55:56.327Z,98653.00
2022-11-19T17:58:23.980Z,98666.81
2022-11-19T18:00:51.600Z,98665.84
2022-11-19T18:03:20.595Z,98664.13
2022-11-19T18:05:49.651Z,98666.72
2022-11-19T18:08:17.559Z,98670.16
2022-11-19T18:10:47.015Z,98659.56
2022-11-19T18:13:18.313Z,98647.84
2022-11-19T18:15:45.963Z,98654.53
2022-11-19T18:18:13.600Z,98665.72
2022-11-19T18:20:42.666Z,98670.81
2022-11-19T18:23:13.122Z,98670.03
2022-11-19T18:25:41.192Z,98670.91
2022-11-19T18:28:08.877Z,98666.47
2022-11-19T18:30:36.903Z,98669.97
2022-11-19T18:33:04.826Z,98677.75
2022-11-19T18:35:33.009Z,98663.94
2022-11-19T18:38:01.964Z,98653.59
2022-11-19T18:40:29.585Z,98667.28
2022-11-19T18:43:14.594Z,98668.25
2022-11-19T18:45:42.172Z,98673.44
2022-11-19T18:48:09.841Z,98668.16
2022-11-19T18:50:37.552Z,98670.69
2022-11-19T18:53:06.405Z,98668.97
2022-11-19T18:55:34.016Z,98681.19
2022-11-19T18:58:01.645Z,98678.59
2022-11-19T19:00:29.295Z,98671.66
2022-11-19T19:02:56.873Z,98669.84
2022-11-19T19:05:24.638Z,98674.31
2022-11-19T19:07:52.348Z,98682.06
2022-11-19T19:10:21.298Z,98676.81
2022-11-19T19:12:47.876Z,98679.41
2022-11-19T19:15:15.539Z,98680.09
2022-11-19T19:17:43.225Z,98681.19
2022-11-19T19:20:11.853Z,98683.63
2022-11-19T19:22:39.537Z,98682.59
2022-11-19T19:25:08.158Z,98681.78
2022-11-19T19:27:37.195Z,98683.59
2022-11-19T19:30:05.850Z,98679.31
2022-11-19T19:32:33.511Z,98685.44
2022-11-19T19:35:01.144Z,98678.50
2022-11-19T19:37:28.715Z,98678.44
2022-11-19T19:39:56.418Z,98678.50
2022-11-19T19:42:24.005Z,98693.25
2022-11-19T19:44:53.027Z,98694.03
2022-11-19T19:47:20.728Z,98694.69
2022-11-19T19:49:48.619Z,98700.94
2022-11-19T19:52:16.282Z,98700.13
2022-11-19T19:54:44.090Z,98682.91
2022-11-19T19:57:11.926Z,98697.53
2022-11-19T19:59:39.655Z,98699.31
2022-11-19T20:02:10.425Z,98697.50
2022-11-19T20:04:38.168Z,98692.31
2022-11-19T20:07:05.811Z,98696.66
2022-11-19T20:09:33.523Z,98694.91
2022-11-19T20:12:01.181Z,98704.47
2022-11-19T20:14:28.835Z,98709.63
2022-11-19T20:16:56.465Z,98706.97
2022-11-19T20:19:25.668Z,98697.53
2022-11-19T20:21:54.416Z,98695.84
2022-11-19T20:24:22.647Z,98686.28
2022-11-19T20:26:50.405Z,98699.94
2022-11-19T20:29:20.410Z,98704.38
2022-11-19T20:31:49.181Z,98697.22
2022-11-19T20:34:17.312Z,98710.41
2022-11-19T20:36:46.584Z,98706.94
2022-11-19T20:39:14.183Z,98706.09
2022-11-19T20:41:59.601Z,98698.50
2022-11-19T20:44:27.430Z,98712.97
2022-11-19T20:46:56.184Z,98716.59
2022-11-19T20:49:25.665Z,98707.81
2022-11-19T20:51:55.245Z,98714.56
2022-11-19T20:54:23.649Z,98719.75
2022-11-19T20:56:52.653Z,98714.75
2022-11-19T20:59:21.298Z,98718.22
2022-11-19T21:01:49.577Z,98710.47
2022-11-19T21:04:17.522Z,98710.53
2022-11-19T21:06:45.662Z,98713.09
2022-11-19T21:09:16.422Z,98709.63
2022-11-19T21:11:44.121Z,98704.53
2022-11-19T21:14:11.916Z,98695.75
2022-11-19T21:16:39.619Z,98700.00
2022-11-19T21:19:07.344Z,98689.66
2022-11-19T21:21:35.342Z,98693.91
2022-11-19T21:24:03.348Z,98694.69
2022-11-19T21:26:32.497Z,98697.38
2022-11-19T21:29:00.697Z,98706.88
2022-11-19T21:31:38.443Z,98702.47
2022-11-19T21:34:07.095Z,98703.41
2022-11-19T21:36:35.114Z,98709.56
2022-11-19T21:39:03.003Z,98702.84
2022-11-19T21:41:32.066Z,98698.50
2022-11-19T21:44:00.108Z,98669.41
2022-11-19T21:46:27.791Z,98693.31
2022-11-19T21:48:55.489Z,98701.03
2022-11-19T21:51:25.142Z,98703.75
2022-11-19T21:53:54.617Z,98701.84
2022-11-19T21:56:22.327Z,98699.22
2022-11-19T21:58:51.300Z,98697.69
2022-11-19T22:01:19.193Z,98694.94
2022-11-19T22:03:47.285Z,98695.88
2022-11-19T22:06:14.956Z,98700.13
2022-11-19T22:08:43.145Z,98701.84
2022-11-19T22:11:30.485Z,98696.72
2022-11-19T22:14:01.783Z,98703.34
2022-11-19T22:16:30.041Z,98701.72
2022-11-19T22:18:57.763Z,98694.91
2022-11-19T22:21:26.381Z,98684.75
2022-11-19T22:23:54.154Z,98702.75
2022-11-19T22:26:21.824Z,98693.00
2022-11-19T22:28:49.518Z,98688.75
2022-11-19T22:31:18.741Z,98687.91
2022-11-19T22:33:47.719Z,98687.06
2022-11-19T22:36:15.747Z,98675.00
2022-11-19T22:38:43.515Z,98698.34
2022-11-19T22:41:12.509Z,98697.56
2022-11-19T22:43:40.977Z,98701.94
2022-11-19T22:46:09.881Z,98701.94
2022-11-19T22:48:39.204Z,98701.16
2022-11-19T22:51:08.595Z,98695.06
2022-11-19T22:53:36.658Z,98693.19
2022-11-19T22:56:05.188Z,98677.59
2022-11-19T22:58:33.234Z,98690.53
2022-11-19T23:01:01.017Z,98689.56
2022-11-19T23:03:28.910Z,98688.03
2022-11-19T23:05:59.276Z,98679.31
2022-11-19T23:08:27.079Z,98678.59
2022-11-19T23:10:58.489Z,98681.34
2022-11-19T23:13:34.278Z,98677.75
2022-11-19T23:16:04.863Z,98681.25
2022-11-19T23:18:34.937Z,98678.66
2022-11-19T23:21:06.659Z,98671.72
2022-11-19T23:23:34.470Z,98674.44
2022-11-19T23:26:03.273Z,98658.22
2022-11-19T23:28:32.433Z,98668.53
2022-11-19T23:31:03.850Z,98673.59
2022-11-19T23:33:31.669Z,98664.88
2022-11-19T23:36:04.317Z,98661.41
2022-11-19T23:38:32.009Z,98663.28
2022-11-19T23:41:00.164Z,98664.97
2022-11-19T23:43:28.408Z,98667.50
2022-11-19T23:45:57.610Z,98664.16
2022-11-19T23:48:25.578Z,98661.66
2022-11-19T23:50:53.285Z,98659.75
2022-11-19T23:53:22.299Z,98658.13
2022-11-19T23:55:50.021Z,98653.66
2022-11-19T23:58:17.609Z,98654.44
